sensor_id;sensor_type;location;lat;lon;timestamp;P1;durP1;ratioP1;P2;durP2;ratioP2
62071;SDS011;48031;48.542;13.232;2023-07-13T00:01:55;4.68;;;3.20;;
62071;SDS011;48031;48.542;13.232;2023-07-13T00:05:58;4.13;;;3.38;;
62071;SDS011;48031;48.542;13.232;2023-07-13T00:10:01;5.45;;;3.50;;
62071;SDS011;48031;48.542;13.232;2023-07-13T00:14:04;6.72;;;3.95;;
62071;SDS011;48031;48.542;13.232;2023-07-13T00:18:07;5.45;;;3.47;;
62071;SDS011;48031;48.542;13.232;2023-07-13T00:22:10;5.93;;;3.72;;
62071;SDS011;48031;48.542;13.232;2023-07-13T00:26:12;9.10;;;4.82;;
62071;SDS011;48031;48.542;13.232;2023-07-13T00:30:15;4.72;;;4.03;;
62071;SDS011;48031;48.542;13.232;2023-07-13T00:34:18;8.70;;;4.75;;
62071;SDS011;48031;48.542;13.232;2023-07-13T00:38:20;5.53;;;4.95;;
62071;SDS011;48031;48.542;13.232;2023-07-13T00:42:22;5.18;;;4.18;;
62071;SDS011;48031;48.542;13.232;2023-07-13T00:46:30;6.68;;;4.20;;
62071;SDS011;48031;48.542;13.232;2023-07-13T00:50:37;4.70;;;4.22;;
62071;SDS011;48031;48.542;13.232;2023-07-13T00:54:43;6.60;;;3.55;;
62071;SDS011;48031;48.542;13.232;2023-07-13T00:58:47;5.35;;;3.97;;
62071;SDS011;48031;48.542;13.232;2023-07-13T01:02:49;5.55;;;4.15;;
62071;SDS011;48031;48.542;13.232;2023-07-13T01:06:51;5.45;;;4.15;;
62071;SDS011;48031;48.542;13.232;2023-07-13T01:10:56;4.45;;;3.95;;
62071;SDS011;48031;48.542;13.232;2023-07-13T01:15:00;5.82;;;3.78;;
62071;SDS011;48031;48.542;13.232;2023-07-13T01:19:16;4.65;;;3.95;;
62071;SDS011;48031;48.542;13.232;2023-07-13T01:23:41;4.85;;;4.03;;
62071;SDS011;48031;48.542;13.232;2023-07-13T01:27:43;5.80;;;4.20;;
62071;SDS011;48031;48.542;13.232;2023-07-13T01:31:45;5.32;;;3.92;;
62071;SDS011;48031;48.542;13.232;2023-07-13T01:35:47;5.18;;;4.25;;
62071;SDS011;48031;48.542;13.232;2023-07-13T01:39:50;4.50;;;4.10;;
62071;SDS011;48031;48.542;13.232;2023-07-13T01:43:53;5.65;;;3.72;;
62071;SDS011;48031;48.542;13.232;2023-07-13T01:47:55;6.85;;;4.05;;
62071;SDS011;48031;48.542;13.232;2023-07-13T01:51:57;6.55;;;4.28;;
62071;SDS011;48031;48.542;13.232;2023-07-13T01:56:00;4.90;;;3.80;;
62071;SDS011;48031;48.542;13.232;2023-07-13T02:00:03;8.45;;;4.00;;
62071;SDS011;48031;48.542;13.232;2023-07-13T02:04:16;5.88;;;3.60;;
62071;SDS011;48031;48.542;13.232;2023-07-13T02:08:18;5.28;;;3.35;;
62071;SDS011;48031;48.542;13.232;2023-07-13T02:12:21;5.38;;;3.53;;
62071;SDS011;48031;48.542;13.232;2023-07-13T02:16:23;5.95;;;3.72;;
62071;SDS011;48031;48.542;13.232;2023-07-13T02:20:25;5.63;;;3.63;;
62071;SDS011;48031;48.542;13.232;2023-07-13T02:24:28;5.72;;;3.00;;
62071;SDS011;48031;48.542;13.232;2023-07-13T02:28:30;6.43;;;3.50;;
62071;SDS011;48031;48.542;13.232;2023-07-13T02:32:32;8.55;;;3.33;;
62071;SDS011;48031;48.542;13.232;2023-07-13T02:36:36;4.32;;;3.08;;
62071;SDS011;48031;48.542;13.232;2023-07-13T02:40:37;3.10;;;2.55;;
62071;SDS011;48031;48.542;13.232;2023-07-13T02:44:40;4.63;;;2.47;;
62071;SDS011;48031;48.542;13.232;2023-07-13T02:48:42;4.78;;;2.63;;
62071;SDS011;48031;48.542;13.232;2023-07-13T02:52:44;4.85;;;2.33;;
62071;SDS011;48031;48.542;13.232;2023-07-13T02:56:46;7.90;;;2.60;;
62071;SDS011;48031;48.542;13.232;2023-07-13T03:00:49;4.00;;;2.75;;
62071;SDS011;48031;48.542;13.232;2023-07-13T03:04:52;3.75;;;2.50;;
62071;SDS011;48031;48.542;13.232;2023-07-13T03:08:55;5.13;;;2.50;;
62071;SDS011;48031;48.542;13.232;2023-07-13T03:12:58;5.80;;;2.78;;
62071;SDS011;48031;48.542;13.232;2023-07-13T03:17:01;6.85;;;2.70;;
62071;SDS011;48031;48.542;13.232;2023-07-13T03:21:07;5.93;;;2.78;;
62071;SDS011;48031;48.542;13.232;2023-07-13T03:25:11;5.07;;;2.65;;
62071;SDS011;48031;48.542;13.232;2023-07-13T03:29:14;3.25;;;2.38;;
62071;SDS011;48031;48.542;13.232;2023-07-13T03:33:18;3.88;;;2.63;;
62071;SDS011;48031;48.542;13.232;2023-07-13T03:37:21;2.92;;;2.72;;
62071;SDS011;48031;48.542;13.232;2023-07-13T03:41:23;3.70;;;2.38;;
62071;SDS011;48031;48.542;13.232;2023-07-13T03:45:29;3.63;;;2.53;;
62071;SDS011;48031;48.542;13.232;2023-07-13T03:49:32;2.70;;;2.50;;
62071;SDS011;48031;48.542;13.232;2023-07-13T03:53:38;3.58;;;2.60;;
62071;SDS011;48031;48.542;13.232;2023-07-13T03:57:42;4.35;;;2.53;;
62071;SDS011;48031;48.542;13.232;2023-07-13T04:01:44;1.80;;;1.70;;
62071;SDS011;48031;48.542;13.232;2023-07-13T04:05:47;4.38;;;2.67;;
62071;SDS011;48031;48.542;13.232;2023-07-13T04:09:49;7.43;;;2.50;;
62071;SDS011;48031;48.542;13.232;2023-07-13T04:13:53;2.55;;;1.73;;
62071;SDS011;48031;48.542;13.232;2023-07-13T04:17:57;3.20;;;2.30;;
62071;SDS011;48031;48.542;13.232;2023-07-13T04:22:01;3.88;;;1.90;;
62071;SDS011;48031;48.542;13.232;2023-07-13T04:26:05;2.63;;;1.60;;
62071;SDS011;48031;48.542;13.232;2023-07-13T04:30:08;2.55;;;1.95;;
62071;SDS011;48031;48.542;13.232;2023-07-13T04:34:11;2.72;;;1.90;;
62071;SDS011;48031;48.542;13.232;2023-07-13T04:38:13;3.05;;;1.48;;
62071;SDS011;48031;48.542;13.232;2023-07-13T04:42:16;2.75;;;1.92;;
62071;SDS011;48031;48.542;13.232;2023-07-13T04:46:20;3.03;;;1.80;;
62071;SDS011;48031;48.542;13.232;2023-07-13T04:50:22;8.02;;;1.98;;
62071;SDS011;48031;48.542;13.232;2023-07-13T04:54:25;2.38;;;1.77;;
62071;SDS011;48031;48.542;13.232;2023-07-13T04:58:28;3.45;;;2.13;;
62071;SDS011;48031;48.542;13.232;2023-07-13T05:02:31;1.77;;;1.58;;
62071;SDS011;48031;48.542;13.232;2023-07-13T05:06:34;2.90;;;2.00;;
62071;SDS011;48031;48.542;13.232;2023-07-13T05:10:37;2.35;;;1.90;;
62071;SDS011;48031;48.542;13.232;2023-07-13T05:14:39;3.28;;;1.80;;
62071;SDS011;48031;48.542;13.232;2023-07-13T05:18:41;4.82;;;2.08;;
62071;SDS011;48031;48.542;13.232;2023-07-13T05:22:44;3.30;;;2.10;;
62071;SDS011;48031;48.542;13.232;2023-07-13T05:26:48;3.15;;;2.03;;
62071;SDS011;48031;48.542;13.232;2023-07-13T05:30:51;4.28;;;2.20;;
62071;SDS011;48031;48.542;13.232;2023-07-13T05:34:54;4.70;;;1.90;;
62071;SDS011;48031;48.542;13.232;2023-07-13T05:38:56;3.03;;;2.05;;
62071;SDS011;48031;48.542;13.232;2023-07-13T05:42:58;4.43;;;2.40;;
62071;SDS011;48031;48.542;13.232;2023-07-13T05:47:00;2.60;;;2.20;;
62071;SDS011;48031;48.542;13.232;2023-07-13T05:51:03;3.00;;;2.47;;
62071;SDS011;48031;48.542;13.232;2023-07-13T05:55:05;2.88;;;1.95;;
62071;SDS011;48031;48.542;13.232;2023-07-13T05:59:08;3.78;;;2.13;;
62071;SDS011;48031;48.542;13.232;2023-07-13T06:03:11;4.10;;;2.33;;
62071;SDS011;48031;48.542;13.232;2023-07-13T06:07:14;4.00;;;2.25;;
62071;SDS011;48031;48.542;13.232;2023-07-13T06:11:20;7.50;;;2.78;;
62071;SDS011;48031;48.542;13.232;2023-07-13T06:15:24;4.35;;;2.30;;
62071;SDS011;48031;48.542;13.232;2023-07-13T06:19:26;3.67;;;2.70;;
62071;SDS011;48031;48.542;13.232;2023-07-13T06:23:29;5.00;;;2.25;;
62071;SDS011;48031;48.542;13.232;2023-07-13T06:27:31;4.90;;;2.22;;
62071;SDS011;48031;48.542;13.232;2023-07-13T06:31:35;6.00;;;2.60;;
62071;SDS011;48031;48.542;13.232;2023-07-13T06:35:38;3.72;;;2.75;;
62071;SDS011;48031;48.542;13.232;2023-07-13T06:39:40;3.78;;;2.80;;
62071;SDS011;48031;48.542;13.232;2023-07-13T06:43:43;5.70;;;3.30;;
62071;SDS011;48031;48.542;13.232;2023-07-13T06:47:45;4.05;;;2.70;;
62071;SDS011;48031;48.542;13.232;2023-07-13T06:51:48;3.13;;;2.85;;
62071;SDS011;48031;48.542;13.232;2023-07-13T06:55:51;4.60;;;3.00;;
62071;SDS011;48031;48.542;13.232;2023-07-13T06:59:53;6.05;;;2.72;;
62071;SDS011;48031;48.542;13.232;2023-07-13T07:03:55;4.22;;;2.80;;
62071;SDS011;48031;48.542;13.232;2023-07-13T07:07:58;4.25;;;2.60;;
62071;SDS011;48031;48.542;13.232;2023-07-13T07:12:00;5.38;;;2.90;;
62071;SDS011;48031;48.542;13.232;2023-07-13T07:16:05;4.50;;;2.85;;
62071;SDS011;48031;48.542;13.232;2023-07-13T07:20:09;2.15;;;1.95;;
62071;SDS011;48031;48.542;13.232;2023-07-13T07:24:12;5.57;;;3.40;;
62071;SDS011;48031;48.542;13.232;2023-07-13T07:28:15;4.95;;;2.97;;
62071;SDS011;48031;48.542;13.232;2023-07-13T07:32:23;6.47;;;2.60;;
62071;SDS011;48031;48.542;13.232;2023-07-13T07:36:29;2.10;;;1.90;;
62071;SDS011;48031;48.542;13.232;2023-07-13T07:40:38;5.78;;;2.47;;
62071;SDS011;48031;48.542;13.232;2023-07-13T07:44:46;3.60;;;2.10;;
62071;SDS011;48031;48.542;13.232;2023-07-13T07:48:49;3.00;;;2.38;;
62071;SDS011;48031;48.542;13.232;2023-07-13T07:52:51;2.50;;;2.10;;
62071;SDS011;48031;48.542;13.232;2023-07-13T07:56:53;3.25;;;2.42;;
62071;SDS011;48031;48.542;13.232;2023-07-13T08:01:02;5.32;;;3.80;;
62071;SDS011;48031;48.542;13.232;2023-07-13T08:05:09;2.70;;;2.47;;
62071;SDS011;48031;48.542;13.232;2023-07-13T08:13:17;5.18;;;2.50;;
62071;SDS011;48031;48.542;13.232;2023-07-13T08:17:20;3.60;;;2.35;;
62071;SDS011;48031;48.542;13.232;2023-07-13T08:21:22;4.10;;;2.80;;
62071;SDS011;48031;48.542;13.232;2023-07-13T08:25:24;3.30;;;2.40;;
62071;SDS011;48031;48.542;13.232;2023-07-13T08:29:26;3.13;;;2.40;;
62071;SDS011;48031;48.542;13.232;2023-07-13T08:33:28;3.33;;;2.25;;
62071;SDS011;48031;48.542;13.232;2023-07-13T08:37:30;4.30;;;2.50;;
62071;SDS011;48031;48.542;13.232;2023-07-13T08:41:32;6.40;;;2.72;;
62071;SDS011;48031;48.542;13.232;2023-07-13T08:45:49;3.13;;;2.58;;
62071;SDS011;48031;48.542;13.232;2023-07-13T08:49:56;6.10;;;2.30;;
62071;SDS011;48031;48.542;13.232;2023-07-13T08:54:00;2.50;;;2.05;;
62071;SDS011;48031;48.542;13.232;2023-07-13T08:58:07;3.70;;;1.73;;
62071;SDS011;48031;48.542;13.232;2023-07-13T09:02:17;3.20;;;2.10;;
62071;SDS011;48031;48.542;13.232;2023-07-13T09:06:46;4.05;;;2.40;;
62071;SDS011;48031;48.542;13.232;2023-07-13T09:10:52;4.70;;;2.20;;
62071;SDS011;48031;48.542;13.232;2023-07-13T09:15:01;3.35;;;2.10;;
62071;SDS011;48031;48.542;13.232;2023-07-13T09:19:06;3.55;;;1.80;;
62071;SDS011;48031;48.542;13.232;2023-07-13T09:23:17;3.42;;;2.28;;
62071;SDS011;48031;48.542;13.232;2023-07-13T09:27:24;2.00;;;1.50;;
62071;SDS011;48031;48.542;13.232;2023-07-13T09:31:32;5.57;;;2.42;;
62071;SDS011;48031;48.542;13.232;2023-07-13T09:35:41;3.58;;;2.03;;
62071;SDS011;48031;48.542;13.232;2023-07-13T09:39:43;4.40;;;2.00;;
62071;SDS011;48031;48.542;13.232;2023-07-13T09:52:17;2.42;;;1.80;;
62071;SDS011;48031;48.542;13.232;2023-07-13T09:56:28;2.28;;;1.90;;
62071;SDS011;48031;48.542;13.232;2023-07-13T10:00:31;1.83;;;1.65;;
62071;SDS011;48031;48.542;13.232;2023-07-13T10:04:34;2.85;;;1.70;;
62071;SDS011;48031;48.542;13.232;2023-07-13T10:08:36;1.40;;;1.27;;
62071;SDS011;48031;48.542;13.232;2023-07-13T10:12:38;1.30;;;1.20;;
62071;SDS011;48031;48.542;13.232;2023-07-13T10:16:41;3.10;;;1.50;;
62071;SDS011;48031;48.542;13.232;2023-07-13T10:20:46;2.03;;;1.70;;
62071;SDS011;48031;48.542;13.232;2023-07-13T10:24:51;1.85;;;1.70;;
62071;SDS011;48031;48.542;13.232;2023-07-13T10:28:56;3.45;;;1.80;;
62071;SDS011;48031;48.542;13.232;2023-07-13T10:37:05;2.53;;;1.67;;
62071;SDS011;48031;48.542;13.232;2023-07-13T10:41:21;1.90;;;1.60;;
62071;SDS011;48031;48.542;13.232;2023-07-13T10:45:25;1.40;;;1.05;;
62071;SDS011;48031;48.542;13.232;2023-07-13T10:49:31;3.33;;;1.40;;
62071;SDS011;48031;48.542;13.232;2023-07-13T10:53:36;3.00;;;1.50;;
62071;SDS011;48031;48.542;13.232;2023-07-13T10:57:42;1.58;;;1.48;;
62071;SDS011;48031;48.542;13.232;2023-07-13T11:27:21;1.33;;;1.20;;
62071;SDS011;48031;48.542;13.232;2023-07-13T11:31:29;1.58;;;1.38;;
62071;SDS011;48031;48.542;13.232;2023-07-13T11:35:36;1.43;;;1.33;;
62071;SDS011;48031;48.542;13.232;2023-07-13T11:39:42;2.17;;;1.42;;
62071;SDS011;48031;48.542;13.232;2023-07-13T11:43:49;2.47;;;1.67;;
62071;SDS011;48031;48.542;13.232;2023-07-13T11:47:51;2.78;;;1.33;;
62071;SDS011;48031;48.542;13.232;2023-07-13T11:51:53;1.75;;;1.50;;
62071;SDS011;48031;48.542;13.232;2023-07-13T11:55:56;1.83;;;1.40;;
62071;SDS011;48031;48.542;13.232;2023-07-13T12:00:04;2.45;;;1.50;;
62071;SDS011;48031;48.542;13.232;2023-07-13T12:04:30;2.30;;;1.40;;
62071;SDS011;48031;48.542;13.232;2023-07-13T12:08:38;2.08;;;1.50;;
62071;SDS011;48031;48.542;13.232;2023-07-13T12:12:46;1.83;;;1.17;;
62071;SDS011;48031;48.542;13.232;2023-07-13T12:16:59;1.80;;;1.00;;
62071;SDS011;48031;48.542;13.232;2023-07-13T12:21:01;1.10;;;1.00;;
62071;SDS011;48031;48.542;13.232;2023-07-13T12:25:08;2.43;;;1.50;;
62071;SDS011;48031;48.542;13.232;2023-07-13T12:29:15;2.00;;;1.10;;
62071;SDS011;48031;48.542;13.232;2023-07-13T12:33:18;2.33;;;1.20;;
62071;SDS011;48031;48.542;13.232;2023-07-13T12:37:21;1.30;;;1.20;;
62071;SDS011;48031;48.542;13.232;2023-07-13T12:41:24;1.48;;;1.20;;
62071;SDS011;48031;48.542;13.232;2023-07-13T12:45:27;1.42;;;1.33;;
62071;SDS011;48031;48.542;13.232;2023-07-13T12:49:30;1.30;;;1.20;;
62071;SDS011;48031;48.542;13.232;2023-07-13T12:53:39;3.92;;;1.40;;
62071;SDS011;48031;48.542;13.232;2023-07-13T12:57:49;1.98;;;1.33;;
62071;SDS011;48031;48.542;13.232;2023-07-13T13:01:53;1.65;;;1.40;;
62071;SDS011;48031;48.542;13.232;2023-07-13T13:10:04;1.50;;;1.35;;
62071;SDS011;48031;48.542;13.232;2023-07-13T13:14:13;2.15;;;1.20;;
62071;SDS011;48031;48.542;13.232;2023-07-13T13:18:16;1.85;;;1.60;;
62071;SDS011;48031;48.542;13.232;2023-07-13T13:22:20;2.75;;;1.83;;
62071;SDS011;48031;48.542;13.232;2023-07-13T13:26:22;2.25;;;1.20;;
62071;SDS011;48031;48.542;13.232;2023-07-13T13:30:24;1.98;;;1.30;;
62071;SDS011;48031;48.542;13.232;2023-07-13T13:34:26;1.83;;;1.27;;
62071;SDS011;48031;48.542;13.232;2023-07-13T13:38:29;1.70;;;1.20;;
62071;SDS011;48031;48.542;13.232;2023-07-13T13:42:31;1.23;;;1.13;;
62071;SDS011;48031;48.542;13.232;2023-07-13T13:46:35;1.73;;;1.20;;
62071;SDS011;48031;48.542;13.232;2023-07-13T13:50:38;1.83;;;1.30;;
62071;SDS011;48031;48.542;13.232;2023-07-13T13:54:40;3.42;;;1.30;;
62071;SDS011;48031;48.542;13.232;2023-07-13T13:58:42;2.30;;;1.00;;
62071;SDS011;48031;48.542;13.232;2023-07-13T14:02:45;1.20;;;1.10;;
62071;SDS011;48031;48.542;13.232;2023-07-13T14:06:50;2.87;;;1.30;;
62071;SDS011;48031;48.542;13.232;2023-07-13T14:10:54;2.00;;;1.60;;
62071;SDS011;48031;48.542;13.232;2023-07-13T14:14:58;2.70;;;1.43;;
62071;SDS011;48031;48.542;13.232;2023-07-13T14:19:01;2.55;;;1.55;;
62071;SDS011;48031;48.542;13.232;2023-07-13T14:23:03;2.53;;;1.40;;
62071;SDS011;48031;48.542;13.232;2023-07-13T14:27:07;1.70;;;1.30;;
62071;SDS011;48031;48.542;13.232;2023-07-13T14:31:13;3.15;;;1.30;;
62071;SDS011;48031;48.542;13.232;2023-07-13T14:35:18;0.90;;;0.90;;
62071;SDS011;48031;48.542;13.232;2023-07-13T14:39:24;3.03;;;1.35;;
62071;SDS011;48031;48.542;13.232;2023-07-13T14:43:26;3.25;;;1.40;;
62071;SDS011;48031;48.542;13.232;2023-07-13T14:47:31;2.42;;;1.60;;
62071;SDS011;48031;48.542;13.232;2023-07-13T14:51:33;5.28;;;1.52;;
62071;SDS011;48031;48.542;13.232;2023-07-13T14:55:35;3.42;;;1.48;;
62071;SDS011;48031;48.542;13.232;2023-07-13T14:59:37;2.97;;;1.50;;
62071;SDS011;48031;48.542;13.232;2023-07-13T15:03:41;1.95;;;1.30;;
62071;SDS011;48031;48.542;13.232;2023-07-13T15:07:47;1.77;;;1.30;;
62071;SDS011;48031;48.542;13.232;2023-07-13T15:11:49;2.22;;;1.30;;
62071;SDS011;48031;48.542;13.232;2023-07-13T15:15:51;1.73;;;1.20;;
62071;SDS011;48031;48.542;13.232;2023-07-13T15:19:55;1.60;;;1.30;;
62071;SDS011;48031;48.542;13.232;2023-07-13T15:23:57;4.38;;;1.73;;
62071;SDS011;48031;48.542;13.232;2023-07-13T15:28:00;1.20;;;1.10;;
62071;SDS011;48031;48.542;13.232;2023-07-13T15:32:04;1.45;;;1.30;;
62071;SDS011;48031;48.542;13.232;2023-07-13T15:36:12;1.80;;;1.38;;
62071;SDS011;48031;48.542;13.232;2023-07-13T15:40:14;2.97;;;1.40;;
62071;SDS011;48031;48.542;13.232;2023-07-13T15:44:26;1.30;;;1.20;;
62071;SDS011;48031;48.542;13.232;2023-07-13T15:48:31;1.73;;;1.30;;
62071;SDS011;48031;48.542;13.232;2023-07-13T15:52:34;2.13;;;1.20;;
62071;SDS011;48031;48.542;13.232;2023-07-13T15:56:36;2.10;;;1.20;;
62071;SDS011;48031;48.542;13.232;2023-07-13T16:00:39;3.85;;;1.23;;
62071;SDS011;48031;48.542;13.232;2023-07-13T16:04:43;1.77;;;1.30;;
62071;SDS011;48031;48.542;13.232;2023-07-13T16:08:46;1.40;;;1.30;;
62071;SDS011;48031;48.542;13.232;2023-07-13T16:12:48;1.95;;;1.33;;
62071;SDS011;48031;48.542;13.232;2023-07-13T16:16:50;1.75;;;1.50;;
62071;SDS011;48031;48.542;13.232;2023-07-13T16:20:57;1.08;;;1.02;;
62071;SDS011;48031;48.542;13.232;2023-07-13T16:25:00;1.27;;;1.17;;
62071;SDS011;48031;48.542;13.232;2023-07-13T16:29:02;3.97;;;1.40;;
62071;SDS011;48031;48.542;13.232;2023-07-13T16:33:04;2.10;;;1.40;;
62071;SDS011;48031;48.542;13.232;2023-07-13T16:41:18;3.13;;;1.30;;
62071;SDS011;48031;48.542;13.232;2023-07-13T16:45:20;3.08;;;1.30;;
62071;SDS011;48031;48.542;13.232;2023-07-13T16:49:32;1.33;;;1.20;;
62071;SDS011;48031;48.542;13.232;2023-07-13T16:53:38;2.58;;;1.98;;
62071;SDS011;48031;48.542;13.232;2023-07-13T16:57:45;2.63;;;1.90;;
62071;SDS011;48031;48.542;13.232;2023-07-13T17:01:48;2.72;;;1.70;;
62071;SDS011;48031;48.542;13.232;2023-07-13T17:05:50;1.45;;;1.00;;
62071;SDS011;48031;48.542;13.232;2023-07-13T17:09:52;1.42;;;1.30;;
62071;SDS011;48031;48.542;13.232;2023-07-13T17:13:55;4.25;;;1.30;;
62071;SDS011;48031;48.542;13.232;2023-07-13T17:17:57;2.03;;;1.30;;
62071;SDS011;48031;48.542;13.232;2023-07-13T17:22:12;1.63;;;1.30;;
62071;SDS011;48031;48.542;13.232;2023-07-13T17:26:19;1.45;;;1.35;;
62071;SDS011;48031;48.542;13.232;2023-07-13T17:30:21;2.30;;;1.60;;
62071;SDS011;48031;48.542;13.232;2023-07-13T17:34:24;2.10;;;1.50;;
62071;SDS011;48031;48.542;13.232;2023-07-13T17:38:45;2.30;;;1.40;;
62071;SDS011;48031;48.542;13.232;2023-07-13T17:42:53;1.92;;;1.60;;
62071;SDS011;48031;48.542;13.232;2023-07-13T17:46:57;1.42;;;1.20;;
62071;SDS011;48031;48.542;13.232;2023-07-13T17:51:01;1.67;;;1.48;;
62071;SDS011;48031;48.542;13.232;2023-07-13T17:55:08;1.63;;;1.30;;
62071;SDS011;48031;48.542;13.232;2023-07-13T17:59:17;1.30;;;1.20;;
62071;SDS011;48031;48.542;13.232;2023-07-13T18:03:24;1.63;;;1.30;;
62071;SDS011;48031;48.542;13.232;2023-07-13T18:07:35;1.80;;;1.20;;
62071;SDS011;48031;48.542;13.232;2023-07-13T18:11:37;2.85;;;1.50;;
62071;SDS011;48031;48.542;13.232;2023-07-13T18:15:39;2.20;;;1.48;;
62071;SDS011;48031;48.542;13.232;2023-07-13T18:19:45;2.25;;;1.20;;
62071;SDS011;48031;48.542;13.232;2023-07-13T18:23:49;2.38;;;1.40;;
62071;SDS011;48031;48.542;13.232;2023-07-13T18:27:51;1.67;;;1.48;;
62071;SDS011;48031;48.542;13.232;2023-07-13T18:31:54;2.00;;;1.30;;
62071;SDS011;48031;48.542;13.232;2023-07-13T18:36:00;2.03;;;1.50;;
62071;SDS011;48031;48.542;13.232;2023-07-13T18:40:04;2.72;;;1.60;;
62071;SDS011;48031;48.542;13.232;2023-07-13T18:44:13;1.83;;;1.40;;
62071;SDS011;48031;48.542;13.232;2023-07-13T18:48:17;3.50;;;1.60;;
62071;SDS011;48031;48.542;13.232;2023-07-13T18:52:24;1.85;;;1.60;;
62071;SDS011;48031;48.542;13.232;2023-07-13T18:56:27;2.00;;;1.52;;
62071;SDS011;48031;48.542;13.232;2023-07-13T19:00:29;2.10;;;1.48;;
62071;SDS011;48031;48.542;13.232;2023-07-13T19:04:33;4.32;;;1.60;;
62071;SDS011;48031;48.542;13.232;2023-07-13T19:08:36;1.85;;;1.38;;
62071;SDS011;48031;48.542;13.232;2023-07-13T19:12:46;3.75;;;1.60;;
62071;SDS011;48031;48.542;13.232;2023-07-13T19:16:50;3.15;;;1.42;;
62071;SDS011;48031;48.542;13.232;2023-07-13T19:20:53;1.60;;;1.50;;
62071;SDS011;48031;48.542;13.232;2023-07-13T19:24:59;1.45;;;1.35;;
62071;SDS011;48031;48.542;13.232;2023-07-13T19:29:02;1.30;;;1.20;;
62071;SDS011;48031;48.542;13.232;2023-07-13T19:33:09;1.92;;;1.20;;
62071;SDS011;48031;48.542;13.232;2023-07-13T19:37:21;1.63;;;1.38;;
62071;SDS011;48031;48.542;13.232;2023-07-13T19:45:28;1.95;;;1.23;;
62071;SDS011;48031;48.542;13.232;2023-07-13T19:49:30;2.35;;;1.30;;
62071;SDS011;48031;48.542;13.232;2023-07-13T19:53:32;2.00;;;1.45;;
62071;SDS011;48031;48.542;13.232;2023-07-13T19:57:36;1.67;;;1.30;;
62071;SDS011;48031;48.542;13.232;2023-07-13T20:01:38;1.48;;;1.27;;
62071;SDS011;48031;48.542;13.232;2023-07-13T20:05:40;2.70;;;1.40;;
62071;SDS011;48031;48.542;13.232;2023-07-13T20:09:49;2.08;;;1.60;;
62071;SDS011;48031;48.542;13.232;2023-07-13T20:13:54;2.47;;;1.25;;
62071;SDS011;48031;48.542;13.232;2023-07-13T20:17:57;3.75;;;1.58;;
62071;SDS011;48031;48.542;13.232;2023-07-13T20:22:02;1.58;;;1.48;;
62071;SDS011;48031;48.542;13.232;2023-07-13T20:26:04;1.40;;;1.30;;
62071;SDS011;48031;48.542;13.232;2023-07-13T20:30:07;1.70;;;1.42;;
62071;SDS011;48031;48.542;13.232;2023-07-13T20:34:15;1.50;;;1.27;;
62071;SDS011;48031;48.542;13.232;2023-07-13T20:38:22;3.33;;;1.52;;
62071;SDS011;48031;48.542;13.232;2023-07-13T20:42:24;1.83;;;1.45;;
62071;SDS011;48031;48.542;13.232;2023-07-13T20:46:26;3.03;;;1.50;;
62071;SDS011;48031;48.542;13.232;2023-07-13T20:50:29;1.60;;;1.33;;
62071;SDS011;48031;48.542;13.232;2023-07-13T20:54:32;2.63;;;1.77;;
62071;SDS011;48031;48.542;13.232;2023-07-13T20:58:34;2.88;;;1.42;;
62071;SDS011;48031;48.542;13.232;2023-07-13T21:02:36;1.80;;;1.50;;
62071;SDS011;48031;48.542;13.232;2023-07-13T21:06:39;1.83;;;1.73;;
62071;SDS011;48031;48.542;13.232;2023-07-13T21:10:44;1.98;;;1.48;;
62071;SDS011;48031;48.542;13.232;2023-07-13T21:14:47;3.00;;;1.65;;
62071;SDS011;48031;48.542;13.232;2023-07-13T21:18:51;1.48;;;1.33;;
62071;SDS011;48031;48.542;13.232;2023-07-13T21:22:54;1.70;;;1.52;;
62071;SDS011;48031;48.542;13.232;2023-07-13T21:27:00;2.42;;;1.80;;
62071;SDS011;48031;48.542;13.232;2023-07-13T21:31:15;2.00;;;1.80;;
62071;SDS011;48031;48.542;13.232;2023-07-13T21:35:27;1.60;;;1.50;;
62071;SDS011;48031;48.542;13.232;2023-07-13T21:39:35;2.95;;;1.85;;
62071;SDS011;48031;48.542;13.232;2023-07-13T21:43:37;1.90;;;1.65;;
62071;SDS011;48031;48.542;13.232;2023-07-13T21:47:39;2.20;;;1.70;;
62071;SDS011;48031;48.542;13.232;2023-07-13T21:51:41;1.55;;;1.40;;
62071;SDS011;48031;48.542;13.232;2023-07-13T21:55:43;3.63;;;1.55;;
62071;SDS011;48031;48.542;13.232;2023-07-13T21:59:45;2.33;;;1.60;;
62071;SDS011;48031;48.542;13.232;2023-07-13T22:03:54;2.70;;;1.70;;
62071;SDS011;48031;48.542;13.232;2023-07-13T22:07:57;1.70;;;1.60;;
62071;SDS011;48031;48.542;13.232;2023-07-13T22:11:59;2.10;;;1.50;;
62071;SDS011;48031;48.542;13.232;2023-07-13T22:16:04;2.10;;;1.50;;
62071;SDS011;48031;48.542;13.232;2023-07-13T22:20:08;2.53;;;1.52;;
62071;SDS011;48031;48.542;13.232;2023-07-13T22:24:17;8.05;;;1.48;;
62071;SDS011;48031;48.542;13.232;2023-07-13T22:28:26;2.35;;;1.70;;
62071;SDS011;48031;48.542;13.232;2023-07-13T22:32:30;2.33;;;1.60;;
62071;SDS011;48031;48.542;13.232;2023-07-13T22:36:34;2.40;;;1.90;;
62071;SDS011;48031;48.542;13.232;2023-07-13T22:40:36;2.13;;;1.60;;
62071;SDS011;48031;48.542;13.232;2023-07-13T22:44:37;2.88;;;1.60;;
62071;SDS011;48031;48.542;13.232;2023-07-13T22:48:41;1.73;;;1.60;;
62071;SDS011;48031;48.542;13.232;2023-07-13T22:52:45;2.15;;;1.60;;
62071;SDS011;48031;48.542;13.232;2023-07-13T22:56:47;2.08;;;1.88;;
62071;SDS011;48031;48.542;13.232;2023-07-13T23:00:49;1.98;;;1.75;;
62071;SDS011;48031;48.542;13.232;2023-07-13T23:04:52;1.90;;;1.70;;
62071;SDS011;48031;48.542;13.232;2023-07-13T23:08:54;3.45;;;1.73;;
62071;SDS011;48031;48.542;13.232;2023-07-13T23:12:56;1.85;;;1.52;;
62071;SDS011;48031;48.542;13.232;2023-07-13T23:17:04;2.67;;;1.80;;
62071;SDS011;48031;48.542;13.232;2023-07-13T23:21:16;2.10;;;1.50;;
62071;SDS011;48031;48.542;13.232;2023-07-13T23:25:21;3.50;;;1.52;;
62071;SDS011;48031;48.542;13.232;2023-07-13T23:29:24;1.98;;;1.73;;
62071;SDS011;48031;48.542;13.232;2023-07-13T23:33:27;1.98;;;1.70;;
62071;SDS011;48031;48.542;13.232;2023-07-13T23:37:30;4.60;;;1.80;;
62071;SDS011;48031;48.542;13.232;2023-07-13T23:41:32;4.55;;;1.70;;
62071;SDS011;48031;48.542;13.232;2023-07-13T23:45:34;2.83;;;1.95;;
62071;SDS011;48031;48.542;13.232;2023-07-13T23:49:36;1.92;;;1.83;;
62071;SDS011;48031;48.542;13.232;2023-07-13T23:53:38;2.10;;;1.90;;
62071;SDS011;48031;48.542;13.232;2023-07-13T23:57:41;4.30;;;2.00;;
